Time;durP1;ratioP1;P1;durP2;ratioP2;P2;SDS_P1;SDS_P2;PMS_P1;PMS_P2;Temp;Humidity;BMP_temperature;BMP_pressure;BME280_temperature;BME280_humidity;BME280_pressure;Samples;Min_cycle;Max_cycle;Signal;HPM_P1;HPM_P2
2022/10/03 00:00:00;;;;;;;16.90;2.78;;;;;;;;;;2559720;53;21603;-78
2022/10/03 00:02:33;;;;;;;19.23;3.12;;;;;;;;;;2318739;58;21569;-78
2022/10/03 00:05:09;;;;;;;17.65;2.83;;;;;;;;;;2319021;58;21577;-78
2022/10/03 00:07:44;;;;;;;12.85;2.10;;;;;;;;;;2319454;58;21537;-78
2022/10/03 00:10:18;;;;;;;12.57;2.10;;;;;;;;;;2318469;58;21114;-79
2022/10/03 00:12:52;;;;;;;6.82;2.03;;;;;;;;;;2318828;58;21038;-78
2022/10/03 00:15:25;;;;;;;16.67;2.85;;;;;;;;;;2318933;58;21513;-78
2022/10/03 00:17:56;;;;;;;8.40;2.42;;;;;;;;;;2318352;58;21034;-80
2022/10/03 00:20:40;;;;;;;18.58;2.30;;;;;;;;;;2318581;58;21522;-78
2022/10/03 00:23:10;;;;;;;8.45;2.47;;;;;;;;;;2341550;53;72761;-83
2022/10/03 00:25:41;;;;;;;9.88;1.83;;;;;;;;;;2332042;57;21043;-84
2022/10/03 00:28:16;;;;;;;11.73;2.20;;;;;;;;;;2576083;54;21084;-85
2022/10/03 00:30:48;;;;;;;20.88;3.00;;;;;;;;;;2332244;57;21082;-83
2022/10/03 00:33:19;;;;;;;16.25;2.97;;;;;;;;;;2575203;54;21063;-84
2022/10/03 00:35:52;;;;;;;20.15;2.78;;;;;;;;;;2574664;54;21123;-84
2022/10/03 00:38:28;;;;;;;11.55;2.45;;;;;;;;;;2330986;57;21099;-84
2022/10/03 00:41:12;;;;;;;13.93;2.67;;;;;;;;;;2574531;54;21056;-85
2022/10/03 00:43:51;;;;;;;18.90;2.22;;;;;;;;;;2331243;57;21111;-85
2022/10/03 00:46:28;;;;;;;19.08;2.85;;;;;;;;;;2330993;57;21131;-84
2022/10/03 00:49:14;;;;;;;17.58;2.72;;;;;;;;;;2331062;57;21101;-84
2022/10/03 00:51:49;;;;;;;16.85;2.35;;;;;;;;;;2330943;57;21075;-84
2022/10/03 00:54:35;;;;;;;16.65;2.37;;;;;;;;;;2574012;54;21079;-84
2022/10/03 00:57:17;;;;;;;9.60;1.90;;;;;;;;;;2330946;57;21056;-84
2022/10/03 00:59:51;;;;;;;22.50;2.85;;;;;;;;;;2574644;54;21127;-84
2022/10/03 01:02:29;;;;;;;10.80;1.80;;;;;;;;;;2574476;54;21090;-84
2022/10/03 01:07:43;;;;;;;15.93;2.90;;;;;;;;;;2308853;57;39358;-76
2022/10/03 01:10:15;;;;;;;24.87;2.92;;;;;;;;;;2347389;57;21053;-79
2022/10/03 01:13:08;;;;;;;17.60;2.62;;;;;;;;;;2346977;57;21045;-80
2022/10/03 01:15:40;;;;;;;13.68;3.05;;;;;;;;;;2341254;57;21054;-77
2022/10/03 01:18:14;;;;;;;9.05;2.17;;;;;;;;;;2346089;57;21057;-77
2022/10/03 01:20:45;;;;;;;16.17;2.60;;;;;;;;;;2346003;57;21121;-76
2022/10/03 01:23:24;;;;;;;19.17;3.40;;;;;;;;;;2345976;57;21096;-77
2022/10/03 01:25:55;;;;;;;13.57;3.72;;;;;;;;;;2592847;53;21532;-77
2022/10/03 01:31:24;;;;;;;15.07;2.65;;;;;;;;;;2346203;57;21041;-78
2022/10/03 01:33:54;;;;;;;14.55;2.15;;;;;;;;;;2593361;53;21054;-77
2022/10/03 01:36:29;;;;;;;14.13;2.47;;;;;;;;;;2593751;53;21585;-77
2022/10/03 01:38:58;;;;;;;8.65;1.75;;;;;;;;;;2346156;57;21092;-80
2022/10/03 01:41:28;;;;;;;17.42;2.40;;;;;;;;;;2344904;57;21623;-78
2022/10/03 01:43:57;;;;;;;18.98;3.08;;;;;;;;;;2346221;57;21192;-77
2022/10/03 01:46:33;;;;;;;16.23;2.37;;;;;;;;;;2346459;57;21108;-77
2022/10/03 01:49:06;;;;;;;15.65;2.50;;;;;;;;;;2346303;57;21030;-77
2022/10/03 01:51:41;;;;;;;11.93;2.97;;;;;;;;;;2593160;53;21085;-78
2022/10/03 01:54:16;;;;;;;19.05;2.85;;;;;;;;;;2346281;57;21528;-77
2022/10/03 01:56:46;;;;;;;13.82;3.22;;;;;;;;;;2592299;52;21009;-77
2022/10/03 01:59:17;;;;;;;10.80;1.75;;;;;;;;;;2593763;52;21169;-77
2022/10/03 02:01:50;;;;;;;20.35;2.60;;;;;;;;;;2345868;57;21041;-79
2022/10/03 02:04:20;;;;;;;14.70;2.72;;;;;;;;;;2346640;57;21587;-78
2022/10/03 02:06:52;;;;;;;13.95;2.80;;;;;;;;;;2345841;57;21062;-78
2022/10/03 02:09:27;;;;;;;13.50;2.75;;;;;;;;;;2593873;53;21098;-77
2022/10/03 02:12:00;;;;;;;12.55;2.47;;;;;;;;;;2345679;57;21061;-78
2022/10/03 02:14:32;;;;;;;17.02;3.83;;;;;;;;;;2590998;53;21038;-78
2022/10/03 02:17:04;;;;;;;16.67;2.87;;;;;;;;;;2346530;57;21053;-78
2022/10/03 02:19:36;;;;;;;20.02;3.05;;;;;;;;;;2345891;57;21152;-78
2022/10/03 02:22:03;;;;;;;14.20;2.67;;;;;;;;;;2345056;57;21041;-77
2022/10/03 02:24:40;;;;;;;11.07;2.72;;;;;;;;;;2345426;57;21038;-78
2022/10/03 02:27:26;;;;;;;16.80;3.33;;;;;;;;;;2345060;57;21561;-80
2022/10/03 02:30:17;;;;;;;14.93;2.40;;;;;;;;;;2345060;57;21611;-80
2022/10/03 02:33:06;;;;;;;9.48;2.22;;;;;;;;;;2344061;57;21625;-77
2022/10/03 02:35:55;;;;;;;22.73;2.70;;;;;;;;;;2345382;57;21074;-79
2022/10/03 02:38:33;;;;;;;10.05;2.55;;;;;;;;;;2345418;57;21524;-78
2022/10/03 02:41:12;;;;;;;10.13;1.77;;;;;;;;;;2344884;57;21112;-80
2022/10/03 02:43:58;;;;;;;11.70;2.30;;;;;;;;;;2345200;57;21068;-78
2022/10/03 02:46:47;;;;;;;14.05;2.28;;;;;;;;;;2345012;57;21069;-76
2022/10/03 02:49:32;;;;;;;12.85;2.62;;;;;;;;;;2344141;57;21038;-77
2022/10/03 02:52:25;;;;;;;8.98;3.22;;;;;;;;;;2344765;57;21129;-76
2022/10/03 02:55:04;;;;;;;13.68;2.22;;;;;;;;;;2585774;53;21104;-80
2022/10/03 02:57:55;;;;;;;12.07;2.42;;;;;;;;;;2344694;57;21128;-77
2022/10/03 03:00:30;;;;;;;15.05;2.53;;;;;;;;;;2344969;57;21109;-77
2022/10/03 03:03:16;;;;;;;13.32;2.15;;;;;;;;;;2591251;53;21022;-77
2022/10/03 03:06:03;;;;;;;10.65;2.03;;;;;;;;;;2592250;53;21211;-76
2022/10/03 03:08:45;;;;;;;14.75;2.35;;;;;;;;;;2345202;57;21117;-77
2022/10/03 03:11:31;;;;;;;11.32;2.58;;;;;;;;;;2344344;57;21176;-77
2022/10/03 03:14:20;;;;;;;12.95;2.55;;;;;;;;;;2592240;53;21109;-78
2022/10/03 03:16:56;;;;;;;14.48;2.70;;;;;;;;;;2299373;57;21030;-77
2022/10/03 03:19:34;;;;;;;11.32;2.72;;;;;;;;;;2592407;53;21006;-77
2022/10/03 03:22:08;;;;;;;16.25;2.45;;;;;;;;;;2591613;52;21520;-78
2022/10/03 03:24:48;;;;;;;11.23;2.58;;;;;;;;;;2345356;57;21082;-77
2022/10/03 03:27:22;;;;;;;14.45;2.92;;;;;;;;;;2344568;57;21069;-77
2022/10/03 03:29:55;;;;;;;8.45;2.05;;;;;;;;;;2346314;57;21532;-78
2022/10/03 03:32:28;;;;;;;11.35;2.37;;;;;;;;;;2593419;52;21025;-79
2022/10/03 03:35:00;;;;;;;14.77;2.08;;;;;;;;;;2593966;53;21049;-78
2022/10/03 03:37:31;;;;;;;12.20;2.37;;;;;;;;;;2592565;53;21041;-78
2022/10/03 03:40:06;;;;;;;12.37;2.85;;;;;;;;;;2345815;57;21105;-77
2022/10/03 03:42:41;;;;;;;9.02;1.87;;;;;;;;;;2345705;57;21093;-77
2022/10/03 03:45:28;;;;;;;7.35;2.03;;;;;;;;;;2593161;53;21061;-78
2022/10/03 03:48:01;;;;;;;11.00;1.92;;;;;;;;;;2593839;53;21102;-79
2022/10/03 03:50:33;;;;;;;12.50;2.03;;;;;;;;;;2346701;57;21049;-79
2022/10/03 03:53:11;;;;;;;14.98;2.58;;;;;;;;;;2593257;53;21587;-79
2022/10/03 03:55:47;;;;;;;10.02;1.80;;;;;;;;;;2345272;57;21109;-79
2022/10/03 03:58:23;;;;;;;8.00;1.90;;;;;;;;;;2593563;52;21670;-77
2022/10/03 04:00:58;;;;;;;11.90;1.95;;;;;;;;;;2593450;53;21041;-79
2022/10/03 04:03:28;;;;;;;15.02;2.42;;;;;;;;;;2346177;57;21121;-76
2022/10/03 04:06:01;;;;;;;17.92;2.87;;;;;;;;;;2591959;52;21961;-77
2022/10/03 04:08:39;;;;;;;12.80;1.98;;;;;;;;;;2592776;53;21058;-79
2022/10/03 04:11:12;;;;;;;11.38;1.95;;;;;;;;;;2345765;57;21069;-78
2022/10/03 04:13:53;;;;;;;19.75;2.67;;;;;;;;;;2593250;53;21084;-77
2022/10/03 04:19:45;;;;;;;11.40;1.98;;;;;;;;;;2291878;57;21128;-78
2022/10/03 04:22:21;;;;;;;14.60;2.85;;;;;;;;;;2590963;53;21172;-77
2022/10/03 04:25:01;;;;;;;8.60;1.80;;;;;;;;;;2345806;57;21547;-77
2022/10/03 04:27:47;;;;;;;11.27;2.42;;;;;;;;;;2346203;57;21112;-78
2022/10/03 04:30:16;;;;;;;12.93;2.25;;;;;;;;;;2346247;57;21043;-78
2022/10/03 04:33:06;;;;;;;14.82;2.00;;;;;;;;;;2345864;57;21089;-78
2022/10/03 04:35:51;;;;;;;14.02;2.42;;;;;;;;;;2330485;57;21049;-76
2022/10/03 04:38:23;;;;;;;11.90;1.95;;;;;;;;;;2592254;53;21088;-78
2022/10/03 04:40:54;;;;;;;15.43;2.45;;;;;;;;;;2593051;53;21049;-78
2022/10/03 04:43:33;;;;;;;14.00;2.72;;;;;;;;;;2345841;57;21057;-77
2022/10/03 04:48:51;;;;;;;9.45;2.05;;;;;;;;;;2356504;57;20049;-77
2022/10/03 04:51:20;;;;;;;13.10;2.10;;;;;;;;;;2595103;53;21374;-76
2022/10/03 04:53:53;;;;;;;12.20;1.90;;;;;;;;;;2352760;56;21075;-78
2022/10/03 04:56:39;;;;;;;14.93;2.33;;;;;;;;;;2629399;52;21035;-77
2022/10/03 04:59:12;;;;;;;12.98;2.53;;;;;;;;;;2375343;56;21637;-77
2022/10/03 05:01:43;;;;;;;10.10;2.40;;;;;;;;;;2373835;56;21047;-78
2022/10/03 05:04:19;;;;;;;11.07;2.70;;;;;;;;;;2628960;52;21047;-78
2022/10/03 05:06:53;;;;;;;14.35;3.30;;;;;;;;;;2375407;56;21078;-77
2022/10/03 05:09:27;;;;;;;14.98;2.45;;;;;;;;;;2375383;56;21115;-77
2022/10/03 05:11:58;;;;;;;9.68;2.10;;;;;;;;;;2628406;52;21107;-78
2022/10/03 05:14:31;;;;;;;10.30;2.42;;;;;;;;;;2627961;52;21055;-76
2022/10/03 05:17:03;;;;;;;15.23;2.62;;;;;;;;;;2375035;56;21146;-78
2022/10/03 05:19:46;;;;;;;16.50;2.20;;;;;;;;;;2374875;56;21045;-78
2022/10/03 05:22:18;;;;;;;9.80;2.10;;;;;;;;;;2628761;52;21050;-75
2022/10/03 05:24:50;;;;;;;13.88;2.30;;;;;;;;;;2375476;56;21106;-78
2022/10/03 05:27:22;;;;;;;14.60;2.92;;;;;;;;;;2374879;56;21113;-77
2022/10/03 05:29:53;;;;;;;12.23;2.40;;;;;;;;;;2375315;56;21119;-78
2022/10/03 05:32:24;;;;;;;16.10;2.45;;;;;;;;;;2375193;56;21125;-78
2022/10/03 05:35:02;;;;;;;14.95;2.92;;;;;;;;;;2374417;56;21051;-79
2022/10/03 05:37:37;;;;;;;14.93;2.92;;;;;;;;;;2374043;56;21095;-77
2022/10/03 05:40:08;;;;;;;12.88;2.40;;;;;;;;;;2628584;52;21542;-79
2022/10/03 05:42:37;;;;;;;16.02;3.17;;;;;;;;;;2627535;52;21071;-78
2022/10/03 05:45:07;;;;;;;13.02;2.85;;;;;;;;;;2376442;56;21545;-79
2022/10/03 05:47:47;;;;;;;12.60;2.50;;;;;;;;;;2376392;56;21565;-79
2022/10/03 05:50:39;;;;;;;16.70;4.25;;;;;;;;;;2629536;52;21137;-79
2022/10/03 05:53:12;;;;;;;14.15;2.53;;;;;;;;;;2317437;56;21111;-79
2022/10/03 05:55:45;;;;;;;15.35;2.47;;;;;;;;;;2376127;56;21047;-79
2022/10/03 05:58:13;;;;;;;;;;;;;;;;;;2378843;56;21081;-78
2022/10/03 06:00:51;;;;;;;17.98;2.53;;;;;;;;;;2374201;56;20069;-78
2022/10/03 06:03:30;;;;;;;18.02;2.72;;;;;;;;;;2628141;52;21039;-78
2022/10/03 06:06:04;;;;;;;14.93;2.95;;;;;;;;;;2374197;56;21035;-79
2022/10/03 06:08:57;;;;;;;10.23;2.00;;;;;;;;;;2374555;56;21030;-79
2022/10/03 06:11:34;;;;;;;13.52;2.60;;;;;;;;;;2371970;56;21099;-79
2022/10/03 06:14:11;;;;;;;12.55;3.22;;;;;;;;;;2374262;56;21051;-78
2022/10/03 06:16:44;;;;;;;14.45;3.20;;;;;;;;;;2374676;56;21079;-79
2022/10/03 06:22:09;;;;;;;18.98;2.50;;;;;;;;;;2356316;57;22541;-78
2022/10/03 06:24:58;;;;;;;11.35;2.70;;;;;;;;;;2612458;52;21047;-78
2022/10/03 06:27:40;;;;;;;16.48;2.72;;;;;;;;;;2628789;52;21031;-78
2022/10/03 06:30:20;;;;;;;17.42;4.10;;;;;;;;;;2376092;56;21122;-78
2022/10/03 06:33:13;;;;;;;14.73;3.05;;;;;;;;;;2375741;56;21114;-76
2022/10/03 06:36:12;;;;;;;17.17;3.37;;;;;;;;;;2376151;56;21126;-79
2022/10/03 06:39:07;;;;;;;18.17;3.45;;;;;;;;;;2374427;56;21062;-79
2022/10/03 06:41:47;;;;;;;15.75;3.37;;;;;;;;;;2627969;52;21043;-76
2022/10/03 06:44:31;;;;;;;15.30;2.78;;;;;;;;;;2626885;52;21533;-78
2022/10/03 06:47:17;;;;;;;19.48;3.90;;;;;;;;;;2374521;56;21505;-77
2022/10/03 06:50:18;;;;;;;13.95;2.90;;;;;;;;;;2628806;51;21067;-77
2022/10/03 06:52:55;;;;;;;14.38;2.62;;;;;;;;;;2546348;52;21121;-75
2022/10/03 06:55:43;;;;;;;18.45;3.40;;;;;;;;;;2627923;52;21047;-77
2022/10/03 06:58:39;;;;;;;12.45;2.40;;;;;;;;;;2374206;56;21034;-77
2022/10/03 07:01:23;;;;;;;17.45;2.87;;;;;;;;;;2627405;52;21095;-77
2022/10/03 07:04:02;;;;;;;16.50;3.08;;;;;;;;;;2374062;56;21126;-75
2022/10/03 07:06:36;;;;;;;14.55;3.22;;;;;;;;;;2627987;52;21098;-78
2022/10/03 07:09:22;;;;;;;19.98;3.25;;;;;;;;;;2628728;52;21058;-77
2022/10/03 07:12:12;;;;;;;16.33;3.78;;;;;;;;;;2375597;56;21129;-76
2022/10/03 07:14:51;;;;;;;11.75;2.87;;;;;;;;;;2624237;52;21047;-77
2022/10/03 07:17:29;;;;;;;17.70;2.92;;;;;;;;;;2374349;56;21126;-75
2022/10/03 07:20:09;;;;;;;16.80;3.45;;;;;;;;;;2374062;56;21063;-77
2022/10/03 07:22:54;;;;;;;21.90;3.97;;;;;;;;;;2627008;52;21038;-78
2022/10/03 07:25:40;;;;;;;25.05;4.57;;;;;;;;;;2628182;52;21061;-76
2022/10/03 07:28:23;;;;;;;23.80;4.07;;;;;;;;;;2375364;56;21050;-78
2022/10/03 07:30:55;;;;;;;18.50;3.45;;;;;;;;;;2628766;52;21618;-76
2022/10/03 07:33:44;;;;;;;20.80;3.58;;;;;;;;;;2373977;56;21079;-75
2022/10/03 07:39:14;;;;;;;18.20;3.33;;;;;;;;;;2372337;56;20997;-79
2022/10/03 07:41:40;;;;;;;;;;;;;;;;;;2629897;52;21051;-80
2022/10/03 07:44:39;;;;;;;19.45;6.15;;;;;;;;;;2373486;56;20085;-80
2022/10/03 07:47:24;;;;;;;16.42;4.10;;;;;;;;;;2305084;56;21123;-79
2022/10/03 07:50:04;;;;;;;13.27;3.62;;;;;;;;;;2373844;56;21130;-76
2022/10/03 07:52:56;;;;;;;10.27;2.92;;;;;;;;;;2373524;56;21050;-78
2022/10/03 07:55:31;;;;;;;17.90;2.60;;;;;;;;;;2627260;52;21059;-79
2022/10/03 07:58:18;;;;;;;16.90;2.65;;;;;;;;;;2375262;56;21153;-76
2022/10/03 08:00:55;;;;;;;14.93;3.10;;;;;;;;;;2603439;52;21035;-79
2022/10/03 08:03:40;;;;;;;15.15;2.35;;;;;;;;;;2374823;56;21062;-78
2022/10/03 08:06:14;;;;;;;15.57;3.08;;;;;;;;;;2627174;52;21039;-79
2022/10/03 08:09:13;;;;;;;12.60;3.03;;;;;;;;;;2372510;56;21078;-79
2022/10/03 08:11:54;;;;;;;16.25;3.65;;;;;;;;;;2625300;52;21051;-82
2022/10/03 08:14:31;;;;;;;12.07;2.47;;;;;;;;;;2372318;56;21679;-78
2022/10/03 08:17:11;;;;;;;21.40;3.22;;;;;;;;;;2625078;52;21031;-80
2022/10/03 08:20:04;;;;;;;11.55;3.00;;;;;;;;;;2372732;56;21110;-79
2022/10/03 08:22:37;;;;;;;15.15;2.87;;;;;;;;;;2617640;52;21593;-79
2022/10/03 08:25:18;;;;;;;14.48;3.08;;;;;;;;;;2624764;52;21058;-78
2022/10/03 08:27:58;;;;;;;14.85;3.15;;;;;;;;;;2371473;56;21662;-78
2022/10/03 08:30:27;;;;;;;16.90;2.37;;;;;;;;;;2373813;56;21178;-78
2022/10/03 08:32:59;;;;;;;24.15;4.75;;;;;;;;;;2373948;56;21537;-76
2022/10/03 08:35:34;;;;;;;16.25;2.47;;;;;;;;;;2372506;56;21130;-79
2022/10/03 08:38:26;;;;;;;23.58;4.28;;;;;;;;;;2373295;56;21023;-77
2022/10/03 08:41:12;;;;;;;24.98;4.55;;;;;;;;;;2371651;56;21190;-78
2022/10/03 08:43:49;;;;;;;51.47;7.00;;;;;;;;;;2625730;52;21521;-77
2022/10/03 08:46:31;;;;;;;84.43;14.73;;;;;;;;;;2373506;56;21043;-80
2022/10/03 08:49:03;;;;;;;74.10;10.77;;;;;;;;;;2624260;52;21094;-79
2022/10/03 08:51:49;;;;;;;66.47;10.93;;;;;;;;;;2371900;56;21153;-78
2022/10/03 08:54:34;;;;;;;42.72;7.95;;;;;;;;;;2372954;56;21027;-78
2022/10/03 08:57:19;;;;;;;52.83;7.93;;;;;;;;;;2372346;56;21071;-76
2022/10/03 09:00:04;;;;;;;37.53;7.70;;;;;;;;;;2623101;52;21604;-77
2022/10/03 09:02:49;;;;;;;18.80;4.03;;;;;;;;;;2371543;56;21723;-76
2022/10/03 09:05:40;;;;;;;19.77;4.05;;;;;;;;;;2371563;56;21620;-78
2022/10/03 09:08:36;;;;;;;7.85;2.12;;;;;;;;;;2373302;56;21102;-79
2022/10/03 09:14:05;;;;;;;13.62;2.97;;;;;;;;;;2611149;52;22060;-75
2022/10/03 09:16:38;;;;;;;26.30;5.18;;;;;;;;;;2628280;52;21608;-78
2022/10/03 09:19:15;;;;;;;18.97;2.80;;;;;;;;;;2373803;56;21078;-79
2022/10/03 09:22:04;;;;;;;12.52;2.60;;;;;;;;;;2372429;56;21305;-78
2022/10/03 09:24:54;;;;;;;18.27;4.12;;;;;;;;;;2314770;56;21105;-78
2022/10/03 09:27:30;;;;;;;13.68;2.08;;;;;;;;;;2374216;56;22412;-78
2022/10/03 09:30:17;;;;;;;13.35;2.78;;;;;;;;;;2373694;56;21110;-78
2022/10/03 09:33:04;;;;;;;19.33;4.15;;;;;;;;;;2626932;52;21134;-78
2022/10/03 09:35:38;;;;;;;13.75;2.30;;;;;;;;;;2627246;52;21031;-78
2022/10/03 09:38:23;;;;;;;20.48;3.83;;;;;;;;;;2374248;56;21023;-78
2022/10/03 09:41:27;;;;;;;17.00;4.12;;;;;;;;;;2627008;52;21055;-78
2022/10/03 09:44:12;;;;;;;17.23;4.00;;;;;;;;;;2373914;56;21118;-80
2022/10/03 09:47:21;;;;;;;23.75;4.20;;;;;;;;;;2374070;56;21513;-77
2022/10/03 09:50:06;;;;;;;12.52;3.08;;;;;;;;;;2626450;52;21039;-76
2022/10/03 09:52:42;;;;;;;19.73;4.03;;;;;;;;;;2626377;52;21106;-80
2022/10/03 09:55:17;;;;;;;13.50;2.45;;;;;;;;;;2627023;52;21617;-76
2022/10/03 09:57:58;;;;;;;15.90;2.92;;;;;;;;;;2626748;52;21667;-79
2022/10/03 10:00:26;;;;;;;11.27;2.20;;;;;;;;;;2374224;56;21149;-78
2022/10/03 10:03:08;;;;;;;19.08;4.43;;;;;;;;;;2371718;56;21071;-77
2022/10/03 10:05:54;;;;;;;17.30;3.05;;;;;;;;;;2374230;56;21055;-82
2022/10/03 10:08:36;;;;;;;11.88;2.37;;;;;;;;;;2362594;56;21564;-80
2022/10/03 10:11:14;;;;;;;9.85;2.10;;;;;;;;;;2376186;56;21386;-82
2022/10/03 10:13:59;;;;;;;10.45;1.85;;;;;;;;;;2630212;52;21727;-82
2022/10/03 10:16:48;;;;;;;7.97;2.25;;;;;;;;;;2375091;56;21621;-80
2022/10/03 10:19:22;;;;;;;8.70;2.42;;;;;;;;;;2558932;52;21034;-80
2022/10/03 10:22:07;;;;;;;10.20;2.08;;;;;;;;;;2623918;52;21046;-78
2022/10/03 10:24:45;;;;;;;12.20;2.47;;;;;;;;;;2372305;56;21047;-80
2022/10/03 10:27:19;;;;;;;12.65;2.37;;;;;;;;;;2373574;56;21046;-79
2022/10/03 10:30:15;;;;;;;10.15;1.55;;;;;;;;;;2372951;56;21526;-78
2022/10/03 10:33:10;;;;;;;9.90;2.28;;;;;;;;;;2601370;52;21601;-78
2022/10/03 10:36:00;;;;;;;7.37;1.73;;;;;;;;;;2373058;56;21039;-78
2022/10/03 10:41:51;;;;;;;9.95;1.92;;;;;;;;;;2533750;54;22099;-80
2022/10/03 10:44:44;;;;;;;6.32;1.48;;;;;;;;;;2537696;54;21048;-77
2022/10/03 10:47:28;;;;;;;12.65;2.15;;;;;;;;;;2279652;58;21072;-78
2022/10/03 10:50:26;;;;;;;8.80;2.15;;;;;;;;;;2315946;58;21893;-78
2022/10/03 10:53:11;;;;;;;9.18;2.08;;;;;;;;;;2315915;58;21587;-78
2022/10/03 10:56:17;;;;;;;7.78;1.60;;;;;;;;;;2555999;54;21357;-80
2022/10/03 10:59:05;;;;;;;7.18;1.75;;;;;;;;;;2555226;54;21858;-79
2022/10/03 11:01:56;;;;;;;7.75;1.70;;;;;;;;;;2316190;58;21567;-78
2022/10/03 11:04:49;;;;;;;6.50;1.62;;;;;;;;;;2315201;58;21654;-80
2022/10/03 11:07:40;;;;;;;7.80;2.10;;;;;;;;;;2557173;54;21048;-79
2022/10/03 11:10:26;;;;;;;5.45;1.40;;;;;;;;;;2556170;54;21061;-79
2022/10/03 11:13:29;;;;;;;6.15;1.62;;;;;;;;;;2312670;58;21067;-79
2022/10/03 11:16:19;;;;;;;7.45;1.65;;;;;;;;;;2313698;58;21080;-81
2022/10/03 11:19:07;;;;;;;6.57;2.10;;;;;;;;;;2317296;58;21048;-77
2022/10/03 11:22:06;;;;;;;6.00;1.35;;;;;;;;;;2557555;54;21092;-77
2022/10/03 11:24:52;;;;;;;7.25;1.42;;;;;;;;;;2238749;58;21056;-77
2022/10/03 11:27:38;;;;;;;9.63;1.75;;;;;;;;;;2499724;54;21080;-78
2022/10/03 11:30:18;;;;;;;7.53;1.52;;;;;;;;;;2268351;58;21068;-81
2022/10/03 11:33:07;;;;;;;7.97;1.83;;;;;;;;;;2316640;58;21080;-80
2022/10/03 11:35:58;;;;;;;7.47;1.45;;;;;;;;;;2556387;54;21311;-80
2022/10/03 11:38:28;;;;;;;6.95;2.12;;;;;;;;;;2316594;58;21654;-80
2022/10/03 11:41:00;;;;;;;8.00;1.70;;;;;;;;;;2315417;58;21254;-79
2022/10/03 11:43:40;;;;;;;9.27;2.55;;;;;;;;;;2316840;58;21160;-78
2022/10/03 11:46:16;;;;;;;6.00;1.67;;;;;;;;;;2556064;54;21174;-79
2022/10/03 11:48:46;;;;;;;5.80;1.73;;;;;;;;;;2315658;58;21610;-79
2022/10/03 11:51:15;;;;;;;6.10;1.95;;;;;;;;;;2314664;58;21762;-80
2022/10/03 11:53:45;;;;;;;7.00;1.45;;;;;;;;;;2315471;58;22220;-79
2022/10/03 11:56:20;;;;;;;7.80;1.23;;;;;;;;;;2556612;54;21076;-78
2022/10/03 11:58:54;;;;;;;9.13;1.48;;;;;;;;;;2315276;58;21547;-79
2022/10/03 12:01:29;;;;;;;8.68;1.87;;;;;;;;;;2555899;54;21092;-79
2022/10/03 12:04:01;;;;;;;3.45;1.33;;;;;;;;;;2315697;58;21079;-80
2022/10/03 12:09:29;;;;;;;5.57;1.60;;;;;;;;;;2315342;58;20977;-78
2022/10/03 12:11:58;;;;;;;6.28;1.42;;;;;;;;;;2315177;58;21072;-79
2022/10/03 12:14:28;;;;;;;9.65;1.67;;;;;;;;;;2555711;54;21056;-78
2022/10/03 12:17:00;;;;;;;6.20;1.50;;;;;;;;;;2315502;58;21060;-80
2022/10/03 12:19:30;;;;;;;11.05;4.57;;;;;;;;;;2556033;54;21136;-79
2022/10/03 12:21:59;;;;;;;7.72;1.92;;;;;;;;;;2314325;58;21610;-78
2022/10/03 12:24:27;;;;;;;7.07;2.20;;;;;;;;;;2487287;52;72176;-84
2022/10/03 12:26:58;;;;;;;6.97;1.50;;;;;;;;;;2613434;52;21551;-85
2022/10/03 12:29:26;;;;;;;7.70;1.83;;;;;;;;;;2362700;57;21031;-83
2022/10/03 12:32:01;;;;;;;8.48;1.80;;;;;;;;;;2364346;56;21036;-84
2022/10/03 12:34:33;;;;;;;10.25;3.00;;;;;;;;;;2390563;56;21097;-83
2022/10/03 12:37:09;;;;;;;7.47;2.58;;;;;;;;;;2391204;56;21155;-83
2022/10/03 12:39:39;;;;;;;10.43;5.10;;;;;;;;;;2647669;52;21051;-84
2022/10/03 12:42:17;;;;;;;6.72;4.03;;;;;;;;;;2647102;52;21082;-82
2022/10/03 12:44:50;;;;;;;12.37;2.47;;;;;;;;;;2647538;52;21026;-84
2022/10/03 12:47:27;;;;;;;4.80;1.90;;;;;;;;;;2390562;56;21071;-84
2022/10/03 12:49:56;;;;;;;8.90;3.70;;;;;;;;;;2646718;52;21032;-83
2022/10/03 12:52:26;;;;;;;15.52;7.80;;;;;;;;;;2646441;52;21022;-84
2022/10/03 12:55:00;;;;;;;8.63;2.85;;;;;;;;;;2390876;56;21531;-83
2022/10/03 13:00:13;;;;;;;9.05;1.75;;;;;;;;;;2328293;57;22076;-78
2022/10/03 13:02:42;;;;;;;6.25;1.95;;;;;;;;;;2346793;57;21053;-76
2022/10/03 13:05:28;;;;;;;12.73;2.60;;;;;;;;;;2345906;57;21509;-78
2022/10/03 13:07:59;;;;;;;3.47;1.67;;;;;;;;;;2345058;57;21085;-77
2022/10/03 13:10:30;;;;;;;7.90;1.90;;;;;;;;;;2345740;57;21054;-76
2022/10/03 13:13:04;;;;;;;8.20;2.17;;;;;;;;;;2591674;53;21090;-79
2022/10/03 13:18:23;;;;;;;8.85;2.67;;;;;;;;;;2578881;52;27742;-78
2022/10/03 13:20:58;;;;;;;6.70;2.10;;;;;;;;;;2345785;57;21114;-78
2022/10/03 13:23:31;;;;;;;6.07;1.80;;;;;;;;;;2595065;52;21057;-77
2022/10/03 13:26:02;;;;;;;11.55;2.33;;;;;;;;;;2375070;56;21050;-78
2022/10/03 13:28:32;;;;;;;10.60;2.28;;;;;;;;;;2627645;52;21102;-77
2022/10/03 13:31:02;;;;;;;8.27;2.30;;;;;;;;;;2628365;52;21046;-78
2022/10/03 13:33:31;;;;;;;9.68;2.10;;;;;;;;;;2375451;56;21130;-76
2022/10/03 13:36:01;;;;;;;9.20;2.25;;;;;;;;;;2628147;52;21631;-76
2022/10/03 13:38:57;;;;;;;7.22;1.90;;;;;;;;;;2627214;52;21103;-78
2022/10/03 13:41:32;;;;;;;10.95;2.10;;;;;;;;;;2370568;56;21055;-76
2022/10/03 13:44:00;;;;;;;9.02;2.33;;;;;;;;;;2372478;56;21119;-78
2022/10/03 13:46:30;;;;;;;7.87;2.10;;;;;;;;;;2626638;52;21542;-77
2022/10/03 13:49:00;;;;;;;11.00;1.65;;;;;;;;;;2627089;52;21023;-76
2022/10/03 13:51:31;;;;;;;10.15;2.67;;;;;;;;;;2374488;56;21050;-78
2022/10/03 13:54:01;;;;;;;8.77;1.92;;;;;;;;;;2626757;52;21360;-76
2022/10/03 13:56:35;;;;;;;7.95;1.87;;;;;;;;;;2373300;56;21093;-78
2022/10/03 13:59:09;;;;;;;59.80;17.98;;;;;;;;;;2628550;52;21072;-79
2022/10/03 14:01:43;;;;;;;22.23;7.10;;;;;;;;;;2374427;56;21138;-79
2022/10/03 14:04:30;;;;;;;9.50;2.33;;;;;;;;;;2375778;56;21099;-79
2022/10/03 14:06:59;;;;;;;5.57;2.15;;;;;;;;;;2629126;52;21066;-79
2022/10/03 14:09:38;;;;;;;8.13;2.15;;;;;;;;;;2375955;56;21094;-79
2022/10/03 14:12:10;;;;;;;6.45;1.70;;;;;;;;;;2373983;56;21058;-76
2022/10/03 14:14:45;;;;;;;8.35;1.77;;;;;;;;;;2373823;56;21162;-78
2022/10/03 14:17:14;;;;;;;8.48;1.92;;;;;;;;;;2629041;52;21568;-78
2022/10/03 14:19:48;;;;;;;6.12;1.90;;;;;;;;;;2373878;56;21051;-77
2022/10/03 14:22:21;;;;;;;7.50;2.17;;;;;;;;;;2625352;52;21118;-78
2022/10/03 14:24:54;;;;;;;7.50;1.60;;;;;;;;;;2373978;56;21054;-77
2022/10/03 14:27:33;;;;;;;9.63;2.15;;;;;;;;;;2626260;52;21568;-78
2022/10/03 14:30:05;;;;;;;9.75;2.30;;;;;;;;;;2627254;52;21050;-78
2022/10/03 14:32:37;;;;;;;4.90;1.80;;;;;;;;;;2373186;56;21043;-80
2022/10/03 14:35:10;;;;;;;7.50;1.30;;;;;;;;;;2626661;52;22243;-80
2022/10/03 14:37:40;;;;;;;9.95;2.33;;;;;;;;;;2373675;56;21628;-79
2022/10/03 14:40:17;;;;;;;3.95;1.40;;;;;;;;;;2373599;56;21525;-79
2022/10/03 14:42:58;;;;;;;7.40;1.50;;;;;;;;;;2627176;52;21039;-79
2022/10/03 14:45:28;;;;;;;6.32;1.58;;;;;;;;;;2374084;56;21545;-78
2022/10/03 14:47:57;;;;;;;6.90;1.45;;;;;;;;;;2626947;52;21154;-76
2022/10/03 14:50:25;;;;;;;9.77;2.00;;;;;;;;;;2626631;52;21051;-80
2022/10/03 14:53:00;;;;;;;8.35;1.75;;;;;;;;;;2625300;52;21031;-78
2022/10/03 14:55:32;;;;;;;4.25;1.77;;;;;;;;;;2626462;52;21055;-76
2022/10/03 14:58:01;;;;;;;8.85;1.75;;;;;;;;;;2626707;52;21059;-80
2022/10/03 15:00:37;;;;;;;10.57;1.70;;;;;;;;;;2625909;52;21101;-78
2022/10/03 15:03:19;;;;;;;10.00;2.20;;;;;;;;;;2373754;56;21050;-81
2022/10/03 15:05:54;;;;;;;8.38;1.98;;;;;;;;;;2625914;52;21114;-78
2022/10/03 15:08:22;;;;;;;7.53;1.80;;;;;;;;;;2373861;56;21066;-79
2022/10/03 15:10:50;;;;;;;6.15;1.80;;;;;;;;;;2625292;52;21115;-78
2022/10/03 15:13:19;;;;;;;10.25;1.90;;;;;;;;;;2374516;56;21035;-81
2022/10/03 15:15:48;;;;;;;11.12;2.10;;;;;;;;;;2374609;56;21046;-77
2022/10/03 15:18:16;;;;;;;10.55;2.30;;;;;;;;;;2372624;56;21573;-78
2022/10/03 15:20:44;;;;;;;8.10;2.55;;;;;;;;;;2626891;52;21587;-81
2022/10/03 15:23:19;;;;;;;8.00;2.42;;;;;;;;;;2373486;56;21133;-78
2022/10/03 15:25:51;;;;;;;11.15;4.85;;;;;;;;;;2372885;56;21116;-79
2022/10/03 15:28:21;;;;;;;17.83;4.65;;;;;;;;;;2373435;56;21347;-79
2022/10/03 15:30:50;;;;;;;11.90;2.95;;;;;;;;;;2625209;52;21070;-80
2022/10/03 15:33:21;;;;;;;9.32;2.10;;;;;;;;;;2627306;52;21102;-80
2022/10/03 15:35:51;;;;;;;10.55;2.70;;;;;;;;;;2374108;56;21102;-78
2022/10/03 15:38:23;;;;;;;6.55;1.73;;;;;;;;;;2372539;56;21147;-78
2022/10/03 15:40:53;;;;;;;6.32;2.30;;;;;;;;;;2624476;52;21086;-79
2022/10/03 15:43:28;;;;;;;11.93;2.20;;;;;;;;;;2624258;52;21592;-78
2022/10/03 15:45:56;;;;;;;11.93;2.20;;;;;;;;;;2373614;56;21565;-78
2022/10/03 15:48:25;;;;;;;10.27;2.25;;;;;;;;;;2373806;56;21130;-79
2022/10/03 15:50:55;;;;;;;9.30;2.20;;;;;;;;;;2373110;56;21078;-80
2022/10/03 15:53:24;;;;;;;13.62;2.55;;;;;;;;;;2373798;56;21058;-79
2022/10/03 15:55:53;;;;;;;13.00;2.17;;;;;;;;;;2627437;52;21162;-78
2022/10/03 15:58:24;;;;;;;7.47;2.25;;;;;;;;;;2373536;56;21110;-77
2022/10/03 16:00:55;;;;;;;11.07;2.10;;;;;;;;;;2627301;52;21054;-78
2022/10/03 16:03:28;;;;;;;7.70;2.03;;;;;;;;;;2627890;52;21145;-77
2022/10/03 16:06:00;;;;;;;8.52;2.10;;;;;;;;;;2373493;56;21051;-80
2022/10/03 16:08:29;;;;;;;12.80;2.05;;;;;;;;;;2371965;56;22235;-76